createdAt,value
2017-08-03T00:01:20.235Z,21.63
2017-08-03T00:03:47.849Z,19.60
2017-08-03T00:06:16.152Z,19.43
2017-08-03T00:08:43.697Z,15.27
2017-08-03T00:11:11.313Z,20.10
2017-08-03T00:13:38.861Z,17.70
2017-08-03T00:16:06.408Z,17.70
2017-08-03T00:18:33.980Z,17.57
2017-08-03T00:21:01.525Z,17.40
2017-08-03T00:23:29.073Z,25.97
2017-08-03T00:25:56.649Z,18.20
2017-08-03T00:28:24.197Z,17.13
2017-08-03T00:30:51.750Z,20.40
2017-08-03T00:33:19.363Z,16.30
2017-08-03T00:35:46.914Z,14.63
2017-08-03T00:38:14.458Z,21.97
2017-08-03T00:40:42.039Z,17.50
2017-08-03T00:43:09.593Z,17.27
2017-08-03T00:45:37.141Z,18.63
2017-08-03T00:48:04.713Z,16.27
2017-08-03T00:50:32.605Z,19.03
2017-08-03T00:53:00.913Z,16.17
2017-08-03T00:55:28.523Z,17.27
2017-08-03T00:57:56.077Z,19.13
2017-08-03T01:00:23.628Z,18.00
2017-08-03T01:02:51.207Z,16.43
2017-08-03T01:05:18.765Z,17.13
2017-08-03T01:07:46.323Z,22.33
2017-08-03T01:10:13.937Z,17.33
2017-08-03T01:12:41.488Z,22.03
2017-08-03T01:15:09.028Z,15.90
2017-08-03T01:17:37.404Z,18.37
2017-08-03T01:20:05.717Z,17.97
2017-08-03T01:22:33.268Z,16.77
2017-08-03T01:25:00.857Z,15.70
2017-08-03T01:27:28.396Z,17.00
2017-08-03T01:29:55.941Z,15.87
2017-08-03T01:32:23.561Z,22.10
2017-08-03T01:34:51.109Z,17.20
2017-08-03T01:37:18.653Z,16.50
2017-08-03T01:39:46.280Z,20.30
2017-08-03T01:42:13.834Z,16.20
2017-08-03T01:44:42.148Z,18.17
2017-08-03T01:47:11.532Z,16.57
2017-08-03T01:49:39.078Z,16.03
2017-08-03T01:52:07.085Z,18.17
2017-08-03T01:54:34.661Z,19.60
2017-08-03T01:57:02.204Z,17.73
2017-08-03T01:59:29.758Z,16.93
2017-08-03T02:01:57.379Z,16.03
2017-08-03T02:04:24.925Z,17.60
2017-08-03T02:06:52.471Z,16.23
2017-08-03T02:09:20.034Z,17.70
2017-08-03T02:11:47.581Z,17.87
2017-08-03T02:14:15.125Z,16.60
2017-08-03T02:16:42.737Z,20.30
2017-08-03T02:19:10.278Z,17.87
2017-08-03T02:21:37.822Z,15.10
2017-08-03T02:24:05.473Z,18.77
2017-08-03T02:26:33.021Z,16.83
2017-08-03T02:29:00.574Z,20.87
2017-08-03T02:31:28.145Z,15.20
2017-08-03T02:33:55.685Z,14.90
2017-08-03T02:36:23.229Z,18.93
2017-08-03T02:38:50.801Z,16.03
2017-08-03T02:41:18.365Z,22.97
2017-08-03T02:43:45.919Z,17.83
2017-08-03T02:46:13.536Z,16.83
2017-08-03T02:48:41.082Z,16.73
2017-08-03T02:51:08.620Z,16.70
2017-08-03T02:53:36.813Z,14.90
2017-08-03T02:56:04.361Z,13.23
2017-08-03T02:58:31.916Z,18.97
2017-08-03T03:00:59.486Z,15.40
2017-08-03T03:03:27.033Z,20.53
2017-08-03T03:05:54.581Z,17.13
2017-08-03T03:08:22.205Z,19.53
2017-08-03T03:10:50.513Z,15.87
2017-08-03T03:13:18.160Z,13.77
2017-08-03T03:15:45.738Z,19.47
2017-08-03T03:18:13.293Z,19.30
2017-08-03T03:20:40.842Z,13.23
2017-08-03T03:23:08.461Z,19.10
2017-08-03T03:25:36.009Z,13.73
2017-08-03T03:28:03.557Z,14.20
2017-08-03T03:30:31.165Z,14.40
2017-08-03T03:32:59.477Z,13.00
2017-08-03T03:35:27.021Z,13.13
2017-08-03T03:37:54.593Z,17.43
2017-08-03T03:40:22.132Z,19.00
2017-08-03T03:42:49.685Z,13.47
2017-08-03T03:45:18.034Z,18.77
2017-08-03T03:47:45.590Z,14.23
2017-08-03T03:50:13.137Z,15.67
2017-08-03T03:52:40.917Z,13.13
2017-08-03T03:55:08.925Z,13.77
2017-08-03T03:57:36.477Z,20.67
2017-08-03T04:00:04.053Z,14.67
2017-08-03T04:02:32.364Z,13.43
2017-08-03T04:04:59.913Z,13.23
2017-08-03T04:07:27.481Z,20.30
2017-08-03T04:09:55.025Z,15.33
2017-08-03T04:12:22.573Z,11.60
2017-08-03T04:14:50.235Z,18.93
2017-08-03T04:17:17.788Z,12.60
2017-08-03T04:19:46.101Z,16.10
2017-08-03T04:22:13.677Z,18.10
2017-08-03T04:24:41.221Z,17.83
2017-08-03T04:27:08.765Z,19.93
2017-08-03T04:29:36.378Z,16.33
2017-08-03T04:32:03.936Z,19.23
2017-08-03T04:34:32.058Z,17.50
2017-08-03T04:36:59.953Z,12.23
2017-08-03T04:39:27.506Z,12.73
2017-08-03T04:41:55.070Z,15.93
2017-08-03T04:44:22.657Z,12.57
2017-08-03T04:46:50.196Z,11.53
2017-08-03T04:49:17.746Z,16.93
2017-08-03T04:51:45.333Z,12.20
2017-08-03T04:54:12.875Z,15.23
2017-08-03T04:56:41.045Z,13.93
2017-08-03T04:59:08.657Z,14.43
2017-08-03T05:01:36.205Z,14.03
2017-08-03T05:04:03.750Z,11.40
2017-08-03T05:06:31.317Z,16.93
2017-08-03T05:08:58.866Z,18.70
2017-08-03T05:11:26.410Z,10.40
2017-08-03T05:13:53.980Z,21.20
2017-08-03T05:16:21.525Z,12.20
2017-08-03T05:18:49.075Z,30.73
2017-08-03T05:21:17.038Z,19.50
2017-08-03T05:23:44.577Z,13.53
2017-08-03T05:26:12.117Z,14.73
2017-08-03T05:28:40.457Z,12.83
2017-08-03T05:31:08.001Z,11.37
2017-08-03T05:33:35.545Z,13.27
2017-08-03T05:36:03.177Z,14.10
2017-08-03T05:38:31.494Z,14.73
2017-08-03T05:40:59.037Z,12.13
2017-08-03T05:43:26.636Z,14.30
2017-08-03T05:45:54.176Z,11.80
2017-08-03T05:48:21.725Z,11.63
2017-08-03T05:50:49.300Z,10.60
2017-08-03T05:53:16.858Z,13.33
2017-08-03T05:55:44.409Z,14.53
2017-08-03T05:58:12.525Z,11.57
2017-08-03T06:00:40.074Z,19.30
2017-08-03T06:03:07.617Z,11.30
2017-08-03T06:05:35.237Z,16.07
2017-08-03T06:08:02.776Z,21.70
2017-08-03T06:10:30.325Z,14.23
2017-08-03T06:12:57.925Z,14.27
2017-08-03T06:15:25.473Z,10.40
2017-08-03T06:17:53.012Z,16.03
2017-08-03T06:20:20.581Z,9.07
2017-08-03T06:22:48.122Z,14.90
2017-08-03T06:25:15.652Z,9.00
2017-08-03T06:27:43.257Z,10.53
2017-08-03T06:30:10.805Z,11.00
2017-08-03T06:32:38.353Z,13.03
2017-08-03T06:35:05.941Z,14.00
2017-08-03T06:37:33.486Z,13.30
2017-08-03T06:40:01.058Z,7.80
2017-08-03T06:42:28.665Z,7.37
2017-08-03T06:44:56.208Z,10.93
2017-08-03T06:47:23.758Z,7.87
2017-08-03T06:49:52.149Z,11.57
2017-08-03T06:52:19.700Z,12.30
2017-08-03T06:54:47.241Z,7.23
2017-08-03T06:57:14.821Z,12.93
2017-08-03T06:59:43.716Z,12.60
2017-08-03T07:02:11.257Z,11.73
2017-08-03T07:04:39.597Z,11.23
2017-08-03T07:07:07.137Z,12.53
2017-08-03T07:09:34.677Z,8.03
2017-08-03T07:12:02.280Z,8.13
2017-08-03T07:14:29.817Z,9.63
2017-08-03T07:16:57.361Z,10.93
2017-08-03T07:19:24.929Z,11.30
2017-08-03T07:21:52.479Z,13.13
2017-08-03T07:24:20.043Z,11.53
2017-08-03T07:26:47.608Z,7.30
2017-08-03T07:29:15.144Z,8.07
2017-08-03T07:31:43.449Z,6.33
2017-08-03T07:34:11.058Z,6.27
2017-08-03T07:36:38.665Z,11.60
2017-08-03T07:39:06.196Z,5.93
2017-08-03T07:41:34.536Z,11.43
2017-08-03T07:44:02.079Z,9.43
2017-08-03T07:46:29.616Z,13.70
2017-08-03T07:48:57.230Z,9.77
2017-08-03T07:51:24.781Z,10.00
2017-08-03T07:53:52.315Z,7.87
2017-08-03T07:56:19.921Z,6.20
2017-08-03T07:58:47.456Z,8.93
2017-08-03T08:01:15.501Z,11.10
2017-08-03T08:03:43.061Z,5.80
2017-08-03T08:06:10.602Z,9.93
2017-08-03T08:08:38.168Z,6.30
2017-08-03T08:11:05.753Z,10.70
2017-08-03T08:13:33.293Z,9.03
2017-08-03T08:16:00.842Z,13.93
2017-08-03T08:18:28.455Z,9.63
2017-08-03T08:20:56.005Z,13.67
2017-08-03T08:23:23.546Z,9.00
2017-08-03T08:25:51.125Z,10.40
2017-08-03T08:28:18.661Z,12.73
2017-08-03T08:30:46.217Z,8.47
2017-08-03T08:33:13.777Z,7.40
2017-08-03T08:35:41.321Z,10.00
2017-08-03T08:38:08.861Z,6.13
2017-08-03T08:40:37.234Z,7.70
2017-08-03T08:43:05.545Z,9.40
2017-08-03T08:45:33.085Z,6.17
2017-08-03T08:48:01.445Z,5.67
2017-08-03T08:50:28.997Z,9.60
2017-08-03T08:52:56.553Z,12.13
2017-08-03T08:55:24.164Z,10.67
2017-08-03T08:57:51.697Z,9.07
2017-08-03T09:00:19.237Z,8.63
2017-08-03T09:02:47.108Z,5.27
2017-08-03T09:05:14.649Z,6.90
2017-08-03T09:07:42.212Z,14.50
2017-08-03T09:10:10.037Z,9.53
2017-08-03T09:12:37.582Z,12.87
2017-08-03T09:15:05.130Z,11.17
2017-08-03T09:17:32.701Z,11.03
2017-08-03T09:20:00.262Z,7.57
2017-08-03T09:22:27.851Z,15.17
2017-08-03T09:24:55.461Z,11.83
2017-08-03T09:27:23.002Z,11.90
2017-08-03T09:29:50.541Z,10.07
2017-08-03T09:32:18.109Z,8.97
2017-08-03T09:34:45.651Z,20.93
2017-08-03T09:37:13.207Z,10.07
2017-08-03T09:39:40.790Z,14.40
2017-08-03T09:42:08.326Z,12.60
2017-08-03T09:44:35.905Z,9.73
2017-08-03T09:47:03.522Z,11.33
2017-08-03T09:49:31.070Z,12.07
2017-08-03T09:51:58.631Z,11.63
2017-08-03T09:54:26.196Z,15.43
2017-08-03T09:56:54.524Z,8.10
2017-08-03T09:59:22.070Z,16.20
2017-08-03T10:01:49.693Z,10.27
2017-08-03T10:04:17.250Z,9.23
2017-08-03T10:06:45.560Z,19.90
2017-08-03T10:09:15.271Z,12.83
2017-08-03T10:11:42.834Z,20.53
2017-08-03T10:14:10.380Z,21.50
2017-08-03T10:16:37.960Z,14.60
2017-08-03T10:19:05.514Z,14.87
2017-08-03T10:21:33.062Z,12.23
2017-08-03T10:24:00.654Z,18.00
2017-08-03T10:26:28.203Z,14.80
2017-08-03T10:28:55.749Z,16.60
2017-08-03T10:31:23.364Z,11.13
2017-08-03T10:33:50.905Z,14.77
2017-08-03T10:36:18.492Z,14.70
2017-08-03T10:38:46.833Z,15.40
2017-08-03T10:41:14.372Z,15.00
2017-08-03T10:43:41.909Z,17.63
2017-08-03T10:46:09.481Z,15.20
2017-08-03T10:48:37.366Z,10.63
2017-08-03T10:51:04.908Z,13.73
2017-08-03T10:53:32.528Z,10.27
2017-08-03T10:56:00.070Z,12.80
2017-08-03T10:58:27.609Z,12.53
2017-08-03T11:00:55.181Z,12.17
2017-08-03T11:03:22.725Z,13.63
2017-08-03T11:05:50.478Z,18.47
2017-08-03T11:08:18.109Z,15.87
2017-08-03T11:10:46.082Z,9.90
2017-08-03T11:13:13.650Z,10.10
2017-08-03T11:15:41.392Z,11.83
2017-08-03T11:18:08.945Z,13.27
2017-08-03T11:20:36.488Z,18.07
2017-08-03T11:23:04.074Z,13.60
2017-08-03T11:25:31.629Z,13.30
2017-08-03T11:28:04.456Z,12.53
2017-08-03T11:30:32.054Z,18.67
2017-08-03T11:33:00.089Z,13.47
2017-08-03T11:35:27.641Z,14.00
2017-08-03T11:37:55.265Z,16.37
2017-08-03T11:40:22.808Z,18.10
2017-08-03T11:42:51.017Z,15.03
2017-08-03T11:45:18.594Z,14.57
2017-08-03T11:47:47.373Z,10.57
2017-08-03T11:50:15.625Z,14.50
2017-08-03T11:52:43.202Z,17.90
2017-08-03T11:55:11.530Z,15.10
2017-08-03T11:57:39.091Z,16.70
2017-08-03T12:00:06.712Z,24.20
2017-08-03T12:02:34.290Z,20.47
2017-08-03T12:05:01.838Z,15.03
2017-08-03T12:07:30.089Z,18.30
2017-08-03T12:09:57.651Z,16.37
2017-08-03T12:12:25.184Z,8.70
2017-08-03T12:14:54.925Z,13.37
2017-08-03T12:17:23.288Z,8.10
2017-08-03T12:19:51.611Z,12.67
2017-08-03T12:22:19.238Z,19.40
2017-08-03T12:24:49.772Z,12.63
2017-08-03T12:27:17.330Z,11.63
2017-08-03T12:29:44.920Z,13.40
2017-08-03T12:32:12.549Z,11.13
2017-08-03T12:34:40.095Z,21.30
2017-08-03T12:37:07.678Z,17.33
2017-08-03T12:39:35.221Z,17.50
2017-08-03T12:42:02.761Z,15.03
2017-08-03T12:44:32.753Z,30.47
2017-08-03T12:47:01.853Z,17.20
2017-08-03T12:49:29.405Z,13.80
2017-08-03T12:51:57.009Z,14.73
2017-08-03T12:54:24.581Z,15.40
2017-08-03T12:56:52.142Z,16.60
2017-08-03T12:59:20.491Z,13.23
2017-08-03T13:01:48.033Z,12.07
2017-08-03T13:04:15.573Z,23.10
2017-08-03T13:06:43.366Z,14.53
2017-08-03T13:09:12.650Z,10.60
2017-08-03T13:11:48.431Z,12.23
2017-08-03T13:14:16.933Z,14.70
2017-08-03T13:16:44.469Z,20.50
2017-08-03T13:19:12.036Z,17.13
2017-08-03T13:21:39.628Z,18.70
2017-08-03T13:24:07.198Z,15.07
2017-08-03T13:26:35.053Z,11.80
2017-08-03T13:29:02.614Z,18.43
2017-08-03T13:31:30.925Z,16.80
2017-08-03T13:33:58.501Z,10.90
2017-08-03T13:36:26.045Z,10.97
2017-08-03T13:38:55.202Z,18.07
2017-08-03T13:41:23.557Z,16.57
2017-08-03T13:43:51.097Z,15.33
2017-08-03T13:46:20.817Z,21.83
2017-08-03T13:48:48.444Z,14.47
2017-08-03T13:51:15.989Z,19.20
2017-08-03T13:53:43.525Z,11.43
2017-08-03T13:56:11.101Z,15.83
2017-08-03T13:58:39.415Z,18.63
2017-08-03T14:01:06.961Z,17.07
2017-08-03T14:03:34.551Z,15.93
2017-08-03T14:06:02.094Z,23.50
2017-08-03T14:08:29.637Z,14.10
2017-08-03T14:10:57.681Z,18.60
2017-08-03T14:13:26.009Z,21.27
2017-08-03T14:15:53.561Z,45.47
2017-08-03T14:18:21.173Z,27.87
2017-08-03T14:20:48.716Z,29.73
2017-08-03T14:23:16.258Z,14.17
2017-08-03T14:25:43.837Z,24.67
2017-08-03T14:28:11.386Z,30.20
2017-08-03T14:30:38.932Z,12.80
2017-08-03T14:33:06.548Z,22.17
2017-08-03T14:35:34.094Z,25.10
2017-08-03T14:38:02.464Z,20.70
2017-08-03T14:40:30.025Z,22.20
2017-08-03T14:42:57.748Z,21.00
2017-08-03T14:45:25.288Z,16.87
2017-08-03T14:47:52.857Z,32.10
2017-08-03T14:50:20.420Z,23.13
2017-08-03T14:52:47.981Z,11.73
2017-08-03T14:55:15.613Z,23.40
2017-08-03T14:57:43.934Z,16.87
2017-08-03T15:00:11.497Z,24.50
2017-08-03T15:02:39.090Z,20.00
2017-08-03T15:05:06.654Z,22.10
2017-08-03T15:07:34.980Z,19.33
2017-08-03T15:10:02.575Z,21.00
2017-08-03T15:12:30.641Z,20.10
2017-08-03T15:14:58.182Z,28.53
2017-08-03T15:17:25.798Z,18.00
2017-08-03T15:19:54.122Z,11.23
2017-08-03T15:22:21.670Z,24.20
2017-08-03T15:24:49.272Z,19.80
2017-08-03T15:27:16.812Z,24.83
2017-08-03T15:29:44.374Z,24.23
2017-08-03T15:32:12.226Z,16.80
2017-08-03T15:34:39.771Z,25.23
2017-08-03T15:37:07.317Z,17.87
2017-08-03T15:39:34.921Z,15.77
2017-08-03T15:42:02.808Z,17.00
2017-08-03T15:44:31.148Z,20.13
2017-08-03T15:46:58.733Z,17.63
2017-08-03T15:49:26.273Z,19.63
2017-08-03T15:51:53.817Z,26.40
2017-08-03T15:54:21.391Z,23.60
2017-08-03T15:56:48.929Z,18.40
2017-08-03T15:59:16.473Z,16.03
2017-08-03T16:01:44.086Z,25.17
2017-08-03T16:04:11.631Z,20.63
2017-08-03T16:06:39.190Z,26.73
2017-08-03T16:09:06.768Z,16.30
2017-08-03T16:11:34.305Z,22.13
2017-08-03T16:14:02.457Z,24.67
2017-08-03T16:16:30.020Z,16.37
2017-08-03T16:18:57.565Z,22.87
2017-08-03T16:21:25.113Z,17.87
2017-08-03T16:23:52.729Z,16.70
2017-08-03T16:26:20.280Z,18.23
2017-08-03T16:28:47.828Z,28.50
2017-08-03T16:31:15.429Z,30.93
2017-08-03T16:33:42.985Z,25.30
2017-08-03T16:36:10.524Z,26.03
2017-08-03T16:38:38.101Z,25.83
2017-08-03T16:41:05.658Z,22.90
2017-08-03T16:43:33.202Z,18.57
2017-08-03T16:46:00.813Z,24.63
2017-08-03T16:48:28.373Z,19.10
2017-08-03T16:50:55.916Z,19.70
2017-08-03T16:53:23.488Z,25.13
2017-08-03T16:55:51.067Z,22.70
2017-08-03T16:58:18.609Z,19.37
2017-08-03T17:00:46.193Z,18.50
2017-08-03T17:03:13.740Z,18.90
2017-08-03T17:05:41.285Z,20.23
2017-08-03T17:08:08.896Z,15.53
2017-08-03T17:10:37.977Z,28.97
2017-08-03T17:13:05.526Z,20.33
2017-08-03T17:15:35.034Z,22.73
2017-08-03T17:18:02.585Z,22.87
2017-08-03T17:20:31.797Z,21.00
2017-08-03T17:23:00.026Z,19.53
2017-08-03T17:25:27.576Z,23.63
2017-08-03T17:27:55.183Z,18.30
2017-08-03T17:30:23.216Z,19.30
2017-08-03T17:32:50.756Z,25.03
2017-08-03T17:35:18.305Z,14.77
2017-08-03T17:37:45.921Z,17.83
2017-08-03T17:40:14.233Z,18.07
2017-08-03T17:42:47.229Z,16.10
2017-08-03T17:45:14.809Z,26.90
2017-08-03T17:47:42.400Z,25.23
2017-08-03T17:50:10.002Z,24.70
2017-08-03T17:52:37.620Z,26.60
2017-08-03T17:55:05.162Z,25.60
2017-08-03T17:57:32.746Z,23.43
2017-08-03T18:00:00.337Z,23.53
2017-08-03T18:02:29.079Z,24.00
2017-08-03T18:04:57.457Z,25.33
2017-08-03T18:07:25.033Z,18.53
2017-08-03T18:09:52.586Z,20.50
2017-08-03T18:12:20.130Z,22.83
2017-08-03T18:14:47.757Z,18.37
2017-08-03T18:17:15.983Z,17.73
2017-08-03T18:19:44.311Z,33.70
2017-08-03T18:22:11.873Z,22.07
2017-08-03T18:24:39.467Z,19.73
2017-08-03T18:27:07.021Z,34.23
2017-08-03T18:29:34.664Z,48.13
2017-08-03T18:32:02.271Z,27.60
2017-08-03T18:34:30.597Z,40.17
2017-08-03T18:36:58.209Z,31.07
2017-08-03T18:39:25.753Z,22.33
2017-08-03T18:41:53.292Z,39.50
2017-08-03T18:44:20.905Z,39.47
2017-08-03T18:46:48.520Z,25.70
2017-08-03T18:49:16.081Z,27.90
2017-08-03T18:51:43.648Z,35.07
2017-08-03T18:54:11.189Z,44.63
2017-08-03T18:56:38.738Z,23.47
2017-08-03T18:59:06.344Z,30.70
2017-08-03T19:01:34.780Z,32.10
2017-08-03T19:04:02.390Z,22.20
2017-08-03T19:06:29.982Z,25.03
2017-08-03T19:08:57.534Z,31.80
2017-08-03T19:11:25.089Z,21.47
2017-08-03T19:13:52.668Z,17.90
2017-08-03T19:16:20.217Z,22.03
2017-08-03T19:18:48.242Z,29.67
2017-08-03T19:21:15.857Z,23.33
2017-08-03T19:23:43.425Z,23.00
2017-08-03T19:26:11.027Z,26.70
2017-08-03T19:28:38.605Z,20.60
2017-08-03T19:31:06.161Z,26.87
2017-08-03T19:33:33.721Z,28.20
2017-08-03T19:36:01.314Z,33.03
2017-08-03T19:38:31.142Z,26.83
2017-08-03T19:41:01.553Z,26.67
2017-08-03T19:43:29.274Z,27.63
2017-08-03T19:45:56.887Z,24.07
2017-08-03T19:48:24.487Z,29.00
2017-08-03T19:50:52.139Z,36.87
2017-08-03T19:53:19.685Z,29.83
2017-08-03T19:55:47.276Z,28.13
2017-08-03T19:58:14.946Z,28.00
2017-08-03T20:00:42.506Z,23.93
2017-08-03T20:03:10.078Z,26.93
2017-08-03T20:05:41.607Z,22.97
2017-08-03T20:08:09.167Z,32.67
2017-08-03T20:10:43.469Z,27.13
2017-08-03T20:13:18.910Z,23.00
2017-08-03T20:15:46.504Z,25.73
2017-08-03T20:18:15.002Z,27.23
2017-08-03T20:20:42.843Z,22.00
2017-08-03T20:23:10.785Z,23.00
2017-08-03T20:25:38.353Z,22.70
2017-08-03T20:28:05.901Z,22.10
2017-08-03T20:30:33.477Z,23.10
2017-08-03T20:33:01.037Z,23.33
2017-08-03T20:35:28.588Z,23.53
2017-08-03T20:37:56.157Z,31.63
2017-08-03T20:40:23.700Z,25.93
2017-08-03T20:42:51.288Z,29.43
2017-08-03T20:45:18.957Z,32.73
2017-08-03T20:47:46.555Z,19.00
2017-08-03T20:50:14.105Z,23.80
2017-08-03T20:52:41.842Z,31.33
2017-08-03T20:55:09.460Z,29.77
